LTAH

Afyon Airport

Afyonkarahisar, Turkey
TAF LTAH 210140Z 2103/2112 02012KT 9999 BKN028 BECMG 2104/2106 SCT040
Issued Valid From Valid To
Apr-21 @ 01:40 UTC
(2 hours ago)
Apr-21 @ 03:00 UTC
(59 minutes ago)
Apr-21 @ 12:00 UTC
(in 8 hours)
Apr-21 @ 03:00 to Apr-21 @ 04:00
TAF LTAH 210140Z 2103/2112 02012KT 9999 BKN028
Wind Visibility Clouds
20° at 12 knots 10,000+ meters
  • Broken at 2,800' AGL
Becoming Apr-21 @ 04:00 to Apr-21 @ 12:00
BECMG 2104/2106 SCT040
Wind Visibility Clouds
20° at 12 knots 10,000+ meters
  • Scattered at 4,000' AGL
TAF LTAH 210140Z 2103/2112 02012KT 9999 BKN028 BECMG 2104/2106 SCT040
Issued Apr-21 @ 01:40 UTC
(2 hours ago)
Valid From Apr-21 @ 03:00 UTC
(59 minutes ago)
Valid To Apr-21 @ 12:00 UTC
(in 8 hours)
Apr-21 @ 03:00 - Apr-21 @ 04:00
Wind Visibility
20° at 12 knots 10,000+ meters
Clouds
  • Broken at 2,800' AGL
Becoming Apr-21 @ 04:00 - Apr-21 @ 12:00
Wind Visibility
20° at 12 knots 10,000+ meters
Clouds
  • Scattered at 4,000' AGL